createdAt,value
2023-05-18T00:00:47.755Z,1002.64
2023-05-18T00:01:47.628Z,1002.59
2023-05-18T00:02:48.474Z,1002.60
2023-05-18T00:03:47.761Z,1002.58
2023-05-18T00:04:47.660Z,1002.54
2023-05-18T00:05:47.606Z,1002.54
2023-05-18T00:06:47.627Z,1002.57
2023-05-18T00:07:47.815Z,1002.53
2023-05-18T00:08:47.592Z,1002.52
2023-05-18T00:09:47.581Z,1002.55
2023-05-18T00:10:47.553Z,1002.55
2023-05-18T00:11:47.564Z,1002.53
2023-05-18T00:12:47.570Z,1002.56
2023-05-18T00:13:47.525Z,1002.59
2023-05-18T00:14:48.528Z,1002.53
2023-05-18T00:15:47.657Z,1002.63
2023-05-18T00:16:47.767Z,1002.62
2023-05-18T00:17:47.516Z,1002.55
2023-05-18T00:18:47.624Z,1002.57
2023-05-18T00:19:47.491Z,1002.59
2023-05-18T00:21:48.936Z,1002.64
2023-05-18T00:22:48.919Z,1002.57
2023-05-18T00:23:48.914Z,1002.66
2023-05-18T00:24:48.924Z,1002.62
2023-05-18T00:25:48.899Z,1002.64
2023-05-18T00:26:48.911Z,1002.62
2023-05-18T00:27:48.889Z,1002.64
2023-05-18T00:28:48.905Z,1002.58
2023-05-18T00:29:48.880Z,1002.63
2023-05-18T00:30:48.860Z,1002.58
2023-05-18T00:31:50.020Z,1002.63
2023-05-18T00:32:49.984Z,1002.61
2023-05-18T00:33:49.969Z,1002.63
2023-05-18T00:34:49.967Z,1002.63
2023-05-18T00:35:50.902Z,1002.63
2023-05-18T00:36:49.958Z,1002.68
2023-05-18T00:37:49.921Z,1002.65
2023-05-18T00:38:49.913Z,1002.60
2023-05-18T00:39:49.908Z,1002.62
2023-05-18T00:40:49.952Z,1002.66
2023-05-18T00:41:49.900Z,1002.59
2023-05-18T00:42:49.892Z,1002.59
2023-05-18T00:43:49.889Z,1002.56
2023-05-18T00:44:49.857Z,1002.59
2023-05-18T00:45:49.887Z,1002.63
2023-05-18T00:46:49.838Z,1002.63
2023-05-18T00:47:49.867Z,1002.58
2023-05-18T00:48:49.829Z,1002.63
2023-05-18T00:49:49.842Z,1002.58
2023-05-18T00:50:49.866Z,1002.66
2023-05-18T00:51:49.849Z,1002.61
2023-05-18T00:52:49.814Z,1002.63
2023-05-18T00:53:49.829Z,1002.61
2023-05-18T00:54:49.787Z,1002.63
2023-05-18T00:55:49.785Z,1002.63
2023-05-18T00:56:49.810Z,1002.68
2023-05-18T00:57:49.792Z,1002.66
2023-05-18T00:58:49.802Z,1002.67
2023-05-18T00:59:49.741Z,1002.71
2023-05-18T01:00:49.753Z,1002.66
2023-05-18T01:01:49.732Z,1002.74
2023-05-18T01:02:49.874Z,1002.65
2023-05-18T01:03:49.735Z,1002.70
2023-05-18T01:04:49.704Z,1002.64
2023-05-18T01:05:49.693Z,1002.64
2023-05-18T01:06:49.698Z,1002.72
2023-05-18T01:07:50.454Z,1002.71
2023-05-18T01:08:49.696Z,1002.75
2023-05-18T01:09:49.659Z,1002.70
2023-05-18T01:10:49.666Z,1002.69
2023-05-18T01:11:49.636Z,1002.69
2023-05-18T01:12:49.667Z,1002.67
2023-05-18T01:13:49.632Z,1002.63
2023-05-18T01:14:49.716Z,1002.62
2023-05-18T01:15:49.612Z,1002.68
2023-05-18T01:16:50.447Z,1002.63
2023-05-18T01:17:49.664Z,1002.63
2023-05-18T01:18:50.635Z,1002.62
2023-05-18T01:19:49.588Z,1002.61
2023-05-18T01:20:49.622Z,1002.64
2023-05-18T01:21:49.577Z,1002.63
2023-05-18T01:22:49.554Z,1002.61
2023-05-18T01:23:49.591Z,1002.65
2023-05-18T01:24:49.550Z,1002.60
2023-05-18T01:25:49.579Z,1002.66
2023-05-18T01:26:49.525Z,1002.64
2023-05-18T01:27:49.529Z,1002.61
2023-05-18T01:28:49.577Z,1002.59
2023-05-18T01:29:49.495Z,1002.67
2023-05-18T01:30:49.563Z,1002.70
2023-05-18T01:31:49.498Z,1002.61
2023-05-18T01:32:49.605Z,1002.67
2023-05-18T01:33:49.500Z,1002.67
2023-05-18T01:34:49.482Z,1002.62
2023-05-18T01:35:50.341Z,1002.66
2023-05-18T01:36:49.442Z,1002.67
2023-05-18T01:37:49.441Z,1002.66
2023-05-18T01:38:49.433Z,1002.70
2023-05-18T01:39:49.918Z,1002.70
2023-05-18T01:40:49.415Z,1002.65
2023-05-18T01:41:49.420Z,1002.67
2023-05-18T01:42:49.408Z,1002.69
2023-05-18T01:43:49.391Z,1002.68
2023-05-18T01:44:49.452Z,1002.72
2023-05-18T01:45:49.373Z,1002.66
2023-05-18T01:46:49.392Z,1002.68
2023-05-18T01:47:49.428Z,1002.69
2023-05-18T01:48:49.357Z,1002.71
2023-05-18T01:49:49.361Z,1002.66
2023-05-18T01:50:50.328Z,1002.70
2023-05-18T01:51:49.347Z,1002.67
2023-05-18T01:52:49.339Z,1002.68
2023-05-18T01:53:49.317Z,1002.74
2023-05-18T01:54:49.835Z,1002.65
2023-05-18T01:55:49.296Z,1002.71
2023-05-18T01:56:49.303Z,1002.65
2023-05-18T01:57:49.289Z,1002.67
2023-05-18T01:58:49.275Z,1002.69
2023-05-18T01:59:49.277Z,1002.68
2023-05-18T02:00:49.296Z,1002.66
2023-05-18T02:01:49.317Z,1002.79
2023-05-18T02:02:49.298Z,1002.70
2023-05-18T02:03:49.284Z,1002.75
2023-05-18T02:04:49.239Z,1002.79
2023-05-18T02:05:49.241Z,1002.72
2023-05-18T02:06:49.924Z,1002.77
2023-05-18T02:07:49.759Z,1002.80
2023-05-18T02:08:50.225Z,1002.73
2023-05-18T02:09:49.928Z,1002.74
2023-05-18T02:10:49.189Z,1002.75
2023-05-18T02:11:49.179Z,1002.74
2023-05-18T02:12:49.176Z,1002.76
2023-05-18T02:13:49.173Z,1002.75
2023-05-18T02:14:49.157Z,1002.77
2023-05-18T02:15:49.198Z,1002.73
2023-05-18T02:16:49.207Z,1002.72
2023-05-18T02:17:50.989Z,1002.67
2023-05-18T02:18:49.169Z,1002.76
2023-05-18T02:19:49.105Z,1002.77
2023-05-18T02:20:49.109Z,1002.72
2023-05-18T02:21:49.113Z,1002.75
2023-05-18T02:22:49.092Z,1002.77
2023-05-18T02:23:49.105Z,1002.72
2023-05-18T02:24:49.084Z,1002.75
2023-05-18T02:25:49.072Z,1002.77
2023-05-18T02:26:49.060Z,1002.67
2023-05-18T02:27:49.059Z,1002.79
2023-05-18T02:28:49.045Z,1002.67
2023-05-18T02:29:49.037Z,1002.70
2023-05-18T02:30:49.045Z,1002.72
2023-05-18T02:31:49.113Z,1002.72
2023-05-18T02:32:49.084Z,1002.71
2023-05-18T02:33:49.002Z,1002.71
2023-05-18T02:34:50.837Z,1002.72
2023-05-18T02:35:49.011Z,1002.71
2023-05-18T02:36:49.059Z,1002.72
2023-05-18T02:37:49.067Z,1002.71
2023-05-18T02:38:49.095Z,1002.71
2023-05-18T02:39:49.003Z,1002.70
2023-05-18T02:40:48.958Z,1002.74
2023-05-18T02:41:48.946Z,1002.75
2023-05-18T02:42:50.818Z,1002.72
2023-05-18T02:43:48.923Z,1002.77
2023-05-18T02:44:48.923Z,1002.78
2023-05-18T02:45:48.946Z,1002.72
2023-05-18T02:46:48.905Z,1002.73
2023-05-18T02:47:48.941Z,1002.76
2023-05-18T02:48:48.907Z,1002.79
2023-05-18T02:49:48.882Z,1002.70
2023-05-18T02:50:48.874Z,1002.74
2023-05-18T02:51:48.872Z,1002.77
2023-05-18T02:52:48.899Z,1002.73
2023-05-18T02:53:48.852Z,1002.73
2023-05-18T02:54:48.842Z,1002.67
2023-05-18T02:55:48.845Z,1002.73
2023-05-18T02:56:48.822Z,1002.70
2023-05-18T02:57:48.844Z,1002.70
2023-05-18T02:58:48.807Z,1002.67
2023-05-18T02:59:48.795Z,1002.70
2023-05-18T03:00:49.487Z,1002.65
2023-05-18T03:01:48.932Z,1002.70
2023-05-18T03:02:48.915Z,1002.68
2023-05-18T03:03:48.878Z,1002.72
2023-05-18T03:04:49.508Z,1002.75
2023-05-18T03:05:49.786Z,1002.72
2023-05-18T03:06:48.762Z,1002.68
2023-05-18T03:07:48.733Z,1002.72
2023-05-18T03:08:48.739Z,1002.66
2023-05-18T03:09:48.732Z,1002.70
2023-05-18T03:10:48.712Z,1002.72
2023-05-18T03:11:48.714Z,1002.70
2023-05-18T03:12:48.708Z,1002.68
2023-05-18T03:13:48.700Z,1002.68
2023-05-18T03:14:48.684Z,1002.68
2023-05-18T03:15:48.666Z,1002.69
2023-05-18T03:16:48.744Z,1002.69
2023-05-18T03:17:48.710Z,1002.66
2023-05-18T03:18:48.726Z,1002.67
2023-05-18T03:19:48.651Z,1002.71
2023-05-18T03:20:48.676Z,1002.68
2023-05-18T03:21:48.620Z,1002.66
2023-05-18T03:22:48.632Z,1002.67
2023-05-18T03:23:48.633Z,1002.60
2023-05-18T03:24:48.609Z,1002.65
2023-05-18T03:25:48.631Z,1002.67
2023-05-18T03:26:48.613Z,1002.65
2023-05-18T03:27:48.585Z,1002.70
2023-05-18T03:28:48.628Z,1002.72
2023-05-18T03:29:48.564Z,1002.61
2023-05-18T03:30:48.567Z,1002.69
2023-05-18T03:31:48.682Z,1002.68
2023-05-18T03:32:48.556Z,1002.65
2023-05-18T03:33:48.548Z,1002.67
2023-05-18T03:34:48.535Z,1002.63
2023-05-18T03:35:48.781Z,1002.69
2023-05-18T03:36:49.514Z,1002.63
2023-05-18T03:37:48.518Z,1002.68
2023-05-18T03:38:48.509Z,1002.67
2023-05-18T03:39:48.484Z,1002.69
2023-05-18T03:40:48.482Z,1002.69
2023-05-18T03:41:48.483Z,1002.70
2023-05-18T03:42:48.483Z,1002.65
2023-05-18T03:43:48.460Z,1002.64
2023-05-18T03:44:48.454Z,1002.72
2023-05-18T03:45:48.441Z,1002.74
2023-05-18T03:46:50.447Z,1002.63
2023-05-18T03:47:49.524Z,1002.66
2023-05-18T03:48:48.422Z,1002.62
2023-05-18T03:49:48.426Z,1002.68
2023-05-18T03:50:48.399Z,1002.66
2023-05-18T03:51:48.397Z,1002.68
2023-05-18T03:52:49.399Z,1002.71
2023-05-18T03:53:48.370Z,1002.73
2023-05-18T03:54:48.381Z,1002.73
2023-05-18T03:55:48.378Z,1002.67
2023-05-18T03:56:48.370Z,1002.67
2023-05-18T03:57:48.344Z,1002.67
2023-05-18T03:58:48.351Z,1002.74
2023-05-18T03:59:48.317Z,1002.74
2023-05-18T04:00:48.340Z,1002.77
2023-05-18T04:01:48.347Z,1002.75
2023-05-18T04:02:48.343Z,1002.74
2023-05-18T04:03:48.355Z,1002.68
2023-05-18T04:04:48.283Z,1002.73
2023-05-18T04:05:48.287Z,1002.70
2023-05-18T04:06:48.276Z,1002.70
2023-05-18T04:07:48.266Z,1002.80
2023-05-18T04:08:48.281Z,1002.80
2023-05-18T04:09:48.250Z,1002.79
2023-05-18T04:10:48.249Z,1002.79
2023-05-18T04:11:48.229Z,1002.77
2023-05-18T04:12:48.225Z,1002.75
2023-05-18T04:13:48.256Z,1002.82
2023-05-18T04:14:48.197Z,1002.89
2023-05-18T04:15:48.194Z,1002.81
2023-05-18T04:16:48.297Z,1002.82
2023-05-18T04:17:48.212Z,1002.86
2023-05-18T04:18:48.255Z,1002.86
2023-05-18T04:19:48.173Z,1002.81
2023-05-18T04:20:48.154Z,1002.85
2023-05-18T04:21:48.156Z,1002.83
2023-05-18T04:22:48.383Z,1002.91
2023-05-18T04:23:48.153Z,1002.82
2023-05-18T04:24:48.153Z,1002.82
2023-05-18T04:25:48.203Z,1002.92
2023-05-18T04:26:48.112Z,1002.94
2023-05-18T04:27:49.896Z,1002.95
2023-05-18T04:28:48.101Z,1002.85
2023-05-18T04:29:48.087Z,1002.88
2023-05-18T04:30:48.093Z,1002.93
2023-05-18T04:31:48.182Z,1002.87
2023-05-18T04:32:48.152Z,1002.93
2023-05-18T04:33:48.119Z,1002.91
2023-05-18T04:34:48.046Z,1002.89
2023-05-18T04:35:48.867Z,1003.01
2023-05-18T04:36:48.025Z,1002.98
2023-05-18T04:37:48.046Z,1002.96
2023-05-18T04:38:48.033Z,1002.95
2023-05-18T04:39:48.024Z,1002.98
2023-05-18T04:40:48.007Z,1002.95
2023-05-18T04:41:47.988Z,1002.96
2023-05-18T04:42:48.683Z,1003.00
2023-05-18T04:43:47.972Z,1003.06
2023-05-18T04:44:47.958Z,1003.03
2023-05-18T04:45:47.988Z,1003.13
2023-05-18T04:46:47.955Z,1003.09
2023-05-18T04:47:47.963Z,1003.07
2023-05-18T04:48:47.938Z,1003.08
2023-05-18T04:49:47.946Z,1003.04
2023-05-18T04:50:47.934Z,1003.10
2023-05-18T04:51:48.947Z,1003.03
2023-05-18T04:52:47.922Z,1003.06
2023-05-18T04:53:47.916Z,1003.04
2023-05-18T04:54:47.894Z,1003.05
2023-05-18T04:55:47.888Z,1003.06
2023-05-18T04:56:48.330Z,1003.09
2023-05-18T04:57:47.873Z,1003.08
2023-05-18T04:58:48.887Z,1003.03
2023-05-18T04:59:47.973Z,1003.10
2023-05-18T05:00:47.822Z,1003.08
2023-05-18T05:01:47.974Z,1003.08
2023-05-18T05:02:48.417Z,1003.13
2023-05-18T05:03:47.915Z,1003.05
2023-05-18T05:04:47.815Z,1003.11
2023-05-18T05:05:47.822Z,1003.09
2023-05-18T05:06:47.788Z,1003.03
2023-05-18T05:07:47.762Z,1003.08
2023-05-18T05:08:47.799Z,1003.04
2023-05-18T05:09:47.744Z,1003.00
2023-05-18T05:10:47.735Z,1003.03
2023-05-18T05:11:47.745Z,1003.00
2023-05-18T05:12:49.486Z,1003.06
2023-05-18T05:13:48.719Z,1003.11
2023-05-18T05:14:47.741Z,1003.10
2023-05-18T05:15:47.747Z,1003.14
2023-05-18T05:16:47.692Z,1003.10
2023-05-18T05:17:47.750Z,1003.04
2023-05-18T05:18:47.740Z,1003.08
2023-05-18T05:19:47.682Z,1003.11
2023-05-18T05:20:47.670Z,1003.07
2023-05-18T05:21:47.643Z,1003.10
2023-05-18T05:22:47.813Z,1003.13
2023-05-18T05:23:47.641Z,1003.17
2023-05-18T05:24:47.631Z,1003.15
2023-05-18T05:25:47.638Z,1003.16
2023-05-18T05:26:47.624Z,1003.18
2023-05-18T05:27:47.622Z,1003.18
2023-05-18T05:28:47.591Z,1003.19
2023-05-18T05:29:47.591Z,1003.14
2023-05-18T05:30:47.590Z,1003.20
2023-05-18T05:31:47.584Z,1003.21
2023-05-18T05:32:47.586Z,1003.22
2023-05-18T05:33:47.571Z,1003.25
2023-05-18T05:34:47.687Z,1003.22
2023-05-18T05:35:47.569Z,1003.28
2023-05-18T05:36:47.536Z,1003.18
2023-05-18T05:37:47.551Z,1003.25
2023-05-18T05:38:47.524Z,1003.29
2023-05-18T05:39:47.508Z,1003.31
2023-05-18T05:40:47.517Z,1003.27
2023-05-18T05:41:47.502Z,1003.26
2023-05-18T05:42:47.501Z,1003.28
2023-05-18T05:43:47.488Z,1003.28
2023-05-18T05:44:47.486Z,1003.33
2023-05-18T05:45:47.472Z,1003.36
2023-05-18T05:46:47.523Z,1003.28
2023-05-18T05:47:47.534Z,1003.29
2023-05-18T05:48:47.446Z,1003.24
2023-05-18T05:49:48.372Z,1003.28
2023-05-18T05:50:48.435Z,1003.35
2023-05-18T05:51:47.429Z,1003.38
2023-05-18T05:52:47.434Z,1003.23
2023-05-18T05:53:47.980Z,1003.23
2023-05-18T05:54:47.396Z,1003.22
2023-05-18T05:55:47.402Z,1003.25
2023-05-18T05:56:47.395Z,1003.25
2023-05-18T05:57:47.395Z,1003.27
2023-05-18T05:58:47.369Z,1003.32
2023-05-18T05:59:47.359Z,1003.29
2023-05-18T06:00:47.355Z,1003.40
2023-05-18T06:01:47.917Z,1003.29
2023-05-18T06:02:47.339Z,1003.37
2023-05-18T06:03:47.351Z,1003.43
2023-05-18T06:04:47.325Z,1003.44
2023-05-18T06:05:47.338Z,1003.45
2023-05-18T06:06:47.299Z,1003.42
2023-05-18T06:07:47.292Z,1003.31
2023-05-18T06:08:47.279Z,1003.42
2023-05-18T06:09:47.269Z,1003.44
2023-05-18T06:10:47.282Z,1003.42
2023-05-18T06:11:47.245Z,1003.42
2023-05-18T06:12:47.258Z,1003.42
2023-05-18T06:13:47.265Z,1003.39
2023-05-18T06:14:47.254Z,1003.41
2023-05-18T06:15:47.223Z,1003.39
2023-05-18T06:16:47.263Z,1003.43
2023-05-18T06:17:47.314Z,1003.41
2023-05-18T06:18:47.355Z,1003.43
2023-05-18T06:19:47.230Z,1003.50
2023-05-18T06:20:47.264Z,1003.46
2023-05-18T06:21:47.183Z,1003.41
2023-05-18T06:22:47.182Z,1003.33
2023-05-18T06:23:47.173Z,1003.35
2023-05-18T06:24:47.161Z,1003.37
2023-05-18T06:25:47.187Z,1003.43
2023-05-18T06:26:47.144Z,1003.37
2023-05-18T06:27:47.140Z,1003.37
2023-05-18T06:28:47.128Z,1003.49
2023-05-18T06:29:47.110Z,1003.50
2023-05-18T06:30:47.118Z,1003.47
2023-05-18T06:31:47.130Z,1003.45
2023-05-18T06:32:47.181Z,1003.45
2023-05-18T06:33:47.113Z,1003.47
2023-05-18T06:34:47.119Z,1003.51
2023-05-18T06:35:47.080Z,1003.43
2023-05-18T06:36:47.076Z,1003.44
2023-05-18T06:37:47.208Z,1003.37
2023-05-18T06:38:47.923Z,1003.43
2023-05-18T06:39:47.056Z,1003.55
2023-05-18T06:40:47.029Z,1003.49
2023-05-18T06:41:47.032Z,1003.54
2023-05-18T06:42:47.037Z,1003.48
2023-05-18T06:43:47.021Z,1003.45
2023-05-18T06:44:47.004Z,1003.50
2023-05-18T06:45:47.028Z,1003.58
2023-05-18T06:46:47.020Z,1003.53
2023-05-18T06:47:47.006Z,1003.64
2023-05-18T06:48:47.033Z,1003.52
2023-05-18T06:49:46.969Z,1003.55
2023-05-18T06:50:46.956Z,1003.58
2023-05-18T06:51:46.952Z,1003.51
2023-05-18T06:52:46.944Z,1003.48
2023-05-18T06:53:46.953Z,1003.52
2023-05-18T06:54:46.950Z,1003.62
2023-05-18T06:55:46.923Z,1003.57
2023-05-18T06:56:46.896Z,1003.60
2023-05-18T06:57:46.910Z,1003.49
2023-05-18T06:58:46.898Z,1003.55
2023-05-18T06:59:46.895Z,1003.44
2023-05-18T07:00:46.882Z,1003.61
2023-05-18T07:01:46.890Z,1003.47
2023-05-18T07:02:46.850Z,1003.48
2023-05-18T07:03:46.914Z,1003.48
2023-05-18T07:04:46.884Z,1003.45
2023-05-18T07:05:46.839Z,1003.46
2023-05-18T07:06:47.403Z,1003.49
2023-05-18T07:07:48.433Z,1003.51
2023-05-18T07:08:46.802Z,1003.57
2023-05-18T07:09:46.798Z,1003.55
2023-05-18T07:10:46.781Z,1003.50
2023-05-18T07:11:46.785Z,1003.60
2023-05-18T07:12:46.778Z,1003.57
2023-05-18T07:13:46.761Z,1003.51
2023-05-18T07:14:46.772Z,1003.48
2023-05-18T07:15:46.743Z,1003.48
2023-05-18T07:16:46.774Z,1003.51
2023-05-18T07:17:46.744Z,1003.48
2023-05-18T07:18:46.743Z,1003.49
2023-05-18T07:19:46.713Z,1003.54
2023-05-18T07:20:48.504Z,1003.51
2023-05-18T07:21:46.753Z,1003.42
2023-05-18T07:22:46.699Z,1003.45
2023-05-18T07:23:46.689Z,1003.48
2023-05-18T07:24:46.689Z,1003.45
2023-05-18T07:25:46.666Z,1003.45
2023-05-18T07:26:46.661Z,1003.43
2023-05-18T07:27:46.667Z,1003.50
2023-05-18T07:28:46.671Z,1003.50
2023-05-18T07:29:46.648Z,1003.48
2023-05-18T07:30:46.657Z,1003.46
2023-05-18T07:31:46.657Z,1003.51
2023-05-18T07:32:46.650Z,1003.46
2023-05-18T07:33:46.627Z,1003.46
2023-05-18T07:34:46.601Z,1003.44
2023-05-18T07:35:46.625Z,1003.44
2023-05-18T07:36:46.601Z,1003.44
2023-05-18T07:37:47.538Z,1003.48
2023-05-18T07:38:49.506Z,1003.34
2023-05-18T07:39:47.506Z,1003.44
2023-05-18T07:40:46.601Z,1003.49
2023-05-18T07:41:46.558Z,1003.45
2023-05-18T07:42:46.542Z,1003.44
2023-05-18T07:43:46.568Z,1003.46
2023-05-18T07:44:46.540Z,1003.40
2023-05-18T07:45:46.525Z,1003.44
2023-05-18T07:46:46.632Z,1003.45
2023-05-18T07:47:46.583Z,1003.40
2023-05-18T07:48:46.493Z,1003.38
2023-05-18T07:49:47.526Z,1003.50
2023-05-18T07:50:46.458Z,1003.36
2023-05-18T07:51:47.486Z,1003.42
2023-05-18T07:52:46.559Z,1003.45
2023-05-18T07:53:46.477Z,1003.50
2023-05-18T07:54:46.459Z,1003.42
2023-05-18T07:55:46.441Z,1003.44
2023-05-18T07:56:46.435Z,1003.50
2023-05-18T07:57:46.436Z,1003.48
2023-05-18T07:58:46.440Z,1003.42
2023-05-18T07:59:46.435Z,1003.40
2023-05-18T08:00:46.430Z,1003.49
2023-05-18T08:01:46.437Z,1003.38
2023-05-18T08:02:46.645Z,1003.48
2023-05-18T08:03:46.475Z,1003.51
2023-05-18T08:04:46.382Z,1003.47
2023-05-18T08:05:46.398Z,1003.47
2023-05-18T08:06:46.350Z,1003.47
2023-05-18T08:07:46.355Z,1003.44
2023-05-18T08:08:46.450Z,1003.47
2023-05-18T08:09:46.343Z,1003.56
2023-05-18T08:10:46.337Z,1003.50
2023-05-18T08:11:47.031Z,1003.47
2023-05-18T08:12:46.321Z,1003.47
2023-05-18T08:13:46.299Z,1003.45
2023-05-18T08:14:46.294Z,1003.48
2023-05-18T08:15:49.013Z,1003.40
2023-05-18T08:16:47.353Z,1003.37
2023-05-18T08:17:46.321Z,1003.35
2023-05-18T08:18:46.319Z,1003.36
2023-05-18T08:19:46.262Z,1003.36
2023-05-18T08:20:46.286Z,1003.36
2023-05-18T08:21:46.245Z,1003.36
2023-05-18T08:22:46.276Z,1003.31
2023-05-18T08:23:46.214Z,1003.32
2023-05-18T08:24:46.228Z,1003.34
2023-05-18T08:25:46.212Z,1003.30
2023-05-18T08:26:46.200Z,1003.36
2023-05-18T08:27:46.211Z,1003.33
2023-05-18T08:28:46.217Z,1003.43
2023-05-18T08:29:46.195Z,1003.37
2023-05-18T08:30:46.180Z,1003.30
2023-05-18T08:31:47.666Z,1003.26
2023-05-18T08:32:46.202Z,1003.31
2023-05-18T08:33:46.187Z,1003.26
2023-05-18T08:34:46.180Z,1003.26
2023-05-18T08:35:46.144Z,1003.19
2023-05-18T08:36:46.207Z,1003.16
2023-05-18T08:37:46.129Z,1003.17
2023-05-18T08:38:46.095Z,1003.26
2023-05-18T08:39:46.182Z,1003.15
2023-05-18T08:40:46.126Z,1003.21
2023-05-18T08:41:46.134Z,1003.18
2023-05-18T08:42:49.853Z,1003.25
2023-05-18T08:43:47.145Z,1003.18
2023-05-18T08:44:46.049Z,1003.20
2023-05-18T08:45:46.056Z,1003.19
2023-05-18T08:46:46.050Z,1003.14
2023-05-18T08:47:46.116Z,1003.21
2023-05-18T08:48:47.124Z,1003.09
2023-05-18T08:49:46.025Z,1003.18
2023-05-18T08:50:46.018Z,1003.07
2023-05-18T08:51:46.003Z,1003.11
2023-05-18T08:52:46.006Z,1003.18
2023-05-18T08:53:45.984Z,1003.11
2023-05-18T08:54:45.974Z,1003.11
2023-05-18T08:55:46.030Z,1003.16
2023-05-18T08:56:45.979Z,1003.15
2023-05-18T08:57:45.991Z,1003.19
2023-05-18T08:58:45.971Z,1003.18
2023-05-18T08:59:45.932Z,1003.26
2023-05-18T09:00:45.922Z,1003.15
2023-05-18T09:01:45.967Z,1003.11
2023-05-18T09:02:45.943Z,1003.18
2023-05-18T09:03:45.893Z,1003.15
2023-05-18T09:04:45.927Z,1003.14
2023-05-18T09:05:45.893Z,1003.02
2023-05-18T09:06:45.889Z,1003.10
2023-05-18T09:07:46.933Z,1003.08
2023-05-18T09:08:46.872Z,1003.05
2023-05-18T09:09:45.862Z,1003.18
2023-05-18T09:10:45.865Z,1003.07
2023-05-18T09:11:45.856Z,1003.11
2023-05-18T09:12:46.233Z,1003.14
2023-05-18T09:13:45.827Z,1003.07
2023-05-18T09:14:45.805Z,1003.01
2023-05-18T09:15:45.849Z,1003.04
2023-05-18T09:16:47.543Z,1003.03
2023-05-18T09:17:45.858Z,1003.01
2023-05-18T09:18:45.799Z,1002.93
2023-05-18T09:19:46.466Z,1002.99
2023-05-18T09:20:45.766Z,1002.98
2023-05-18T09:21:45.760Z,1002.97
2023-05-18T09:22:45.809Z,1002.90
2023-05-18T09:23:45.776Z,1002.95
2023-05-18T09:24:45.762Z,1002.99
2023-05-18T09:25:45.727Z,1002.98
2023-05-18T09:26:45.738Z,1002.96
2023-05-18T09:27:45.718Z,1002.96
2023-05-18T09:28:45.712Z,1002.85
2023-05-18T09:29:45.707Z,1002.94
2023-05-18T09:30:45.727Z,1002.89
2023-05-18T09:31:45.738Z,1002.84
2023-05-18T09:32:45.745Z,1002.83
2023-05-18T09:33:45.778Z,1002.84
2023-05-18T09:34:45.739Z,1002.86
2023-05-18T09:35:45.639Z,1002.83
2023-05-18T09:36:45.674Z,1002.91
2023-05-18T09:37:46.514Z,1002.77
2023-05-18T09:38:45.667Z,1002.81
2023-05-18T09:39:45.609Z,1002.71
2023-05-18T09:40:45.606Z,1002.72
2023-05-18T09:41:45.594Z,1002.66
2023-05-18T09:42:45.583Z,1002.64
2023-05-18T09:43:45.595Z,1002.64
2023-05-18T09:44:45.583Z,1002.69
2023-05-18T09:45:45.584Z,1002.66
2023-05-18T09:46:45.637Z,1002.69
2023-05-18T09:47:45.608Z,1002.70
2023-05-18T09:48:45.549Z,1002.65
2023-05-18T09:49:45.519Z,1002.79
2023-05-18T09:50:45.529Z,1002.76
2023-05-18T09:51:45.517Z,1002.67
2023-05-18T09:52:45.522Z,1002.79
2023-05-18T09:53:45.492Z,1002.74
2023-05-18T09:54:45.532Z,1002.70
2023-05-18T09:55:45.493Z,1002.67
2023-05-18T09:56:52.314Z,1002.68
2023-05-18T09:57:46.485Z,1002.57
2023-05-18T09:58:45.465Z,1002.58
2023-05-18T09:59:45.462Z,1002.59
2023-05-18T10:00:45.529Z,1002.51
2023-05-18T10:01:45.447Z,1002.54
2023-05-18T10:02:45.496Z,1002.61
2023-05-18T10:03:45.432Z,1002.64
2023-05-18T10:04:45.455Z,1002.58
2023-05-18T10:05:45.416Z,1002.57
2023-05-18T10:06:45.968Z,1002.65
2023-05-18T10:07:45.413Z,1002.59
2023-05-18T10:08:45.393Z,1002.44
2023-05-18T10:09:45.361Z,1002.47
2023-05-18T10:10:45.355Z,1002.60
2023-05-18T10:11:45.360Z,1002.61
2023-05-18T10:12:45.384Z,1002.63
2023-05-18T10:13:45.359Z,1002.53
2023-05-18T10:14:45.359Z,1002.58
2023-05-18T10:15:45.333Z,1002.63
2023-05-18T10:16:45.483Z,1002.63
2023-05-18T10:17:45.403Z,1002.59
2023-05-18T10:18:45.335Z,1002.52
2023-05-18T10:19:45.308Z,1002.54
2023-05-18T10:20:46.355Z,1002.44
2023-05-18T10:21:45.301Z,1002.28
2023-05-18T10:22:45.275Z,1002.40
2023-05-18T10:23:45.262Z,1002.61
2023-05-18T10:24:45.235Z,1002.48
2023-05-18T10:25:45.245Z,1002.51
2023-05-18T10:26:45.260Z,1002.51
2023-05-18T10:27:45.241Z,1002.47
2023-05-18T10:28:45.236Z,1002.39
2023-05-18T10:29:45.215Z,1002.42
2023-05-18T10:30:45.237Z,1002.48
2023-05-18T10:31:45.199Z,1002.55
2023-05-18T10:32:45.189Z,1002.45
2023-05-18T10:33:45.181Z,1002.49
2023-05-18T10:34:45.238Z,1002.39
2023-05-18T10:35:45.194Z,1002.41
2023-05-18T10:36:45.159Z,1002.47
2023-05-18T10:37:45.138Z,1002.43
2023-05-18T10:38:45.134Z,1002.39
2023-05-18T10:39:45.131Z,1002.43
2023-05-18T10:40:45.125Z,1002.65
2023-05-18T10:41:45.137Z,1002.45
2023-05-18T10:42:45.153Z,1002.53
2023-05-18T10:43:45.104Z,1002.43
2023-05-18T10:44:45.092Z,1002.40
2023-05-18T10:45:45.067Z,1002.39
2023-05-18T10:46:45.122Z,1002.43
2023-05-18T10:47:45.266Z,1002.44
2023-05-18T10:48:46.826Z,1002.40
2023-05-18T10:49:46.042Z,1002.29
2023-05-18T10:50:45.051Z,1002.41
2023-05-18T10:51:45.607Z,1002.30
2023-05-18T10:52:45.025Z,1002.37
2023-05-18T10:53:46.599Z,1002.34
2023-05-18T10:54:44.999Z,1002.36
2023-05-18T10:55:45.117Z,1002.49
2023-05-18T10:56:46.999Z,1002.44
2023-05-18T10:57:45.018Z,1002.36
2023-05-18T10:58:44.975Z,1002.39
2023-05-18T10:59:47.449Z,1002.49
2023-05-18T11:00:44.954Z,1002.43
2023-05-18T11:01:45.014Z,1002.40
2023-05-18T11:02:45.177Z,1002.43
2023-05-18T11:03:44.927Z,1002.44
2023-05-18T11:04:44.961Z,1002.40
2023-05-18T11:05:44.917Z,1002.37
2023-05-18T11:06:44.906Z,1002.40
2023-05-18T11:07:44.932Z,1002.44
2023-05-18T11:08:44.954Z,1002.44
2023-05-18T11:09:44.896Z,1002.43
2023-05-18T11:10:44.899Z,1002.39
2023-05-18T11:11:44.870Z,1002.40
2023-05-18T11:12:44.857Z,1002.41
2023-05-18T11:13:44.846Z,1002.39
2023-05-18T11:14:44.856Z,1002.36
2023-05-18T11:15:44.907Z,1002.38
2023-05-18T11:16:44.845Z,1002.58
2023-05-18T11:17:44.870Z,1002.36
2023-05-18T11:18:44.843Z,1002.41
2023-05-18T11:19:45.815Z,1002.40
2023-05-18T11:20:44.937Z,1002.52
2023-05-18T11:21:44.786Z,1002.45
2023-05-18T11:22:44.789Z,1002.46
2023-05-18T11:23:44.800Z,1002.41
2023-05-18T11:24:44.785Z,1002.41
2023-05-18T11:25:44.755Z,1002.39
2023-05-18T11:26:44.794Z,1002.40
2023-05-18T11:27:44.744Z,1002.36
2023-05-18T11:28:44.726Z,1002.38
2023-05-18T11:29:44.729Z,1002.34
2023-05-18T11:30:44.709Z,1002.37
2023-05-18T11:31:44.774Z,1002.36
2023-05-18T11:32:44.754Z,1002.34
2023-05-18T11:33:44.752Z,1002.39
2023-05-18T11:34:44.686Z,1002.36
2023-05-18T11:35:44.692Z,1002.32
2023-05-18T11:36:44.758Z,1002.31
2023-05-18T11:37:44.661Z,1002.30
2023-05-18T11:38:44.660Z,1002.35
2023-05-18T11:39:55.528Z,1002.30
2023-05-18T11:40:46.675Z,1002.35
2023-05-18T11:41:44.623Z,1002.41
2023-05-18T11:42:44.623Z,1002.40
2023-05-18T11:43:44.617Z,1002.48
2023-05-18T11:44:44.611Z,1002.38
2023-05-18T11:45:44.597Z,1002.35
2023-05-18T11:46:45.586Z,1002.30
2023-05-18T11:47:44.646Z,1002.36
2023-05-18T11:48:44.625Z,1002.33
2023-05-18T11:49:44.575Z,1002.30
2023-05-18T11:50:44.569Z,1002.32
2023-05-18T11:51:44.539Z,1002.30
2023-05-18T11:52:44.557Z,1002.36
2023-05-18T11:53:44.548Z,1002.34
2023-05-18T11:54:44.541Z,1002.36
2023-05-18T11:55:44.547Z,1002.39
2023-05-18T11:56:46.050Z,1002.44
2023-05-18T11:57:44.502Z,1002.48
2023-05-18T11:58:44.508Z,1002.33
2023-05-18T11:59:44.493Z,1002.35
2023-05-18T12:00:44.530Z,1002.32
2023-05-18T12:01:44.493Z,1002.35
2023-05-18T12:02:44.576Z,1002.28
2023-05-18T12:03:47.660Z,1002.29
2023-05-18T12:04:44.517Z,1002.20
2023-05-18T12:05:44.444Z,1002.25
2023-05-18T12:06:44.432Z,1002.22